Time;durP1;ratioP1;P1;durP2;ratioP2;P2;SDS_P1;SDS_P2;PMS_P1;PMS_P2;Temp;Humidity;BMP_temperature;BMP_pressure;BME280_temperature;BME280_humidity;BME280_pressure;Samples;Min_cycle;Max_cycle;Signal;HPM_P1;HPM_P2
2021/11/10 00:02:04;;;;;;;27.87;18.20;;;3.30;99.90;;;;;;5051455;28;20293;-67
2021/11/10 00:04:31;;;;;;;27.63;16.90;;;3.30;99.90;;;;;;5048745;28;20206;-67
2021/11/10 00:06:58;;;;;;;22.10;15.90;;;3.30;99.90;;;;;;5056875;28;20329;-68
2021/11/10 00:09:25;;;;;;;26.40;17.43;;;3.30;99.90;;;;;;5049788;28;20292;-68
2021/11/10 00:11:54;;;;;;;29.10;16.93;;;3.20;99.90;;;;;;5051152;28;20612;-68
2021/11/10 00:14:21;;;;;;;29.43;17.53;;;3.20;99.90;;;;;;5048609;28;20276;-69
2021/11/10 00:16:48;;;;;;;30.23;16.50;;;3.30;99.90;;;;;;5047220;28;20216;-68
2021/11/10 00:19:15;;;;;;;29.30;18.53;;;3.30;99.90;;;;;;5040153;28;20206;-69
2021/11/10 00:21:42;;;;;;;27.17;17.60;;;3.20;99.90;;;;;;5048009;28;20651;-67
2021/11/10 00:24:09;;;;;;;26.77;17.00;;;3.30;99.90;;;;;;5049209;28;20205;-69
2021/11/10 00:26:35;;;;;;;28.07;16.67;;;3.30;99.90;;;;;;5040577;28;20237;-66
2021/11/10 00:29:04;;;;;;;28.10;18.27;;;3.30;99.90;;;;;;5044943;28;20210;-69
2021/11/10 00:31:31;;;;;;;27.57;17.87;;;3.20;99.90;;;;;;5052239;28;20244;-68
2021/11/10 00:33:58;;;;;;;28.10;18.07;;;3.20;99.90;;;;;;5049209;28;20209;-68
2021/11/10 00:36:25;;;;;;;29.57;17.87;;;3.20;99.90;;;;;;5050197;28;20226;-67
2021/11/10 00:38:52;;;;;;;31.03;18.20;;;3.20;99.90;;;;;;5047930;28;20296;-68
2021/11/10 00:41:19;;;;;;;26.50;17.80;;;3.20;99.90;;;;;;5046972;28;20217;-67
2021/11/10 00:43:46;;;;;;;29.10;18.43;;;3.10;99.90;;;;;;5050099;28;20588;-68
2021/11/10 00:46:15;;;;;;;29.27;19.53;;;3.10;99.90;;;;;;5047554;28;20233;-68
2021/11/10 00:48:42;;;;;;;29.07;19.27;;;3.10;99.90;;;;;;5051867;28;20748;-67
2021/11/10 00:51:08;;;;;;;30.13;19.33;;;3.10;99.90;;;;;;5043143;28;20206;-68
2021/11/10 00:53:35;;;;;;;32.80;19.13;;;3.00;99.90;;;;;;5050678;28;20232;-68
2021/11/10 00:56:02;;;;;;;29.23;18.73;;;3.00;99.90;;;;;;5042384;28;20613;-68
2021/11/10 00:58:29;;;;;;;32.47;19.70;;;3.00;99.90;;;;;;5048940;28;20217;-68
2021/11/10 01:00:56;;;;;;;32.47;20.40;;;3.00;99.90;;;;;;5048824;28;20206;-67
2021/11/10 01:03:27;;;;;;;31.37;19.93;;;3.00;99.90;;;;;;5043955;28;20211;-69
2021/11/10 01:05:54;;;;;;;29.67;18.90;;;3.00;99.90;;;;;;5042554;28;20260;-68
2021/11/10 01:08:21;;;;;;;30.13;19.30;;;3.10;99.90;;;;;;5061268;28;20202;-68
2021/11/10 01:10:48;;;;;;;33.23;20.20;;;3.00;99.90;;;;;;5048216;28;20218;-68
2021/11/10 01:13:15;;;;;;;34.53;20.87;;;3.00;99.90;;;;;;5049410;28;20672;-73
2021/11/10 01:15:43;;;;;;;32.97;19.77;;;3.00;99.90;;;;;;5041419;28;20264;-68
2021/11/10 01:18:10;;;;;;;33.97;19.43;;;3.00;99.90;;;;;;5046631;28;20208;-68
2021/11/10 01:20:39;;;;;;;37.00;22.13;;;3.00;99.90;;;;;;5042358;28;20201;-68
2021/11/10 01:23:06;;;;;;;30.13;19.97;;;3.00;99.90;;;;;;5048401;28;20216;-68
2021/11/10 01:25:34;;;;;;;31.17;18.37;;;2.90;99.90;;;;;;5052242;28;20206;-68
2021/11/10 01:28:01;;;;;;;30.50;19.67;;;2.90;99.90;;;;;;5042295;28;20325;-68
2021/11/10 01:30:28;;;;;;;33.47;20.97;;;2.90;99.90;;;;;;5042510;28;20210;-69
2021/11/10 01:32:55;;;;;;;35.47;20.87;;;2.90;99.90;;;;;;5049486;28;20202;-68
2021/11/10 01:35:22;;;;;;;32.37;21.20;;;2.90;99.90;;;;;;5049483;28;20217;-68
2021/11/10 01:37:50;;;;;;;35.40;20.93;;;2.90;99.90;;;;;;5043404;28;20201;-68
2021/11/10 01:40:19;;;;;;;33.47;19.50;;;2.90;99.90;;;;;;5043851;28;20211;-69
2021/11/10 01:42:46;;;;;;;37.13;21.73;;;2.90;99.90;;;;;;5041080;28;20214;-68
2021/11/10 01:45:16;;;;;;;32.17;20.10;;;2.90;99.90;;;;;;5050095;28;20204;-69
2021/11/10 01:47:43;;;;;;;34.87;21.07;;;2.90;99.90;;;;;;5046363;28;20222;-69
2021/11/10 01:50:12;;;;;;;31.47;21.13;;;2.90;99.90;;;;;;5036872;28;20206;-69
2021/11/10 01:52:40;;;;;;;32.53;21.07;;;2.80;99.90;;;;;;5045658;28;20256;-70
2021/11/10 01:55:10;;;;;;;34.07;21.90;;;2.80;99.90;;;;;;5051099;28;20312;-69
2021/11/10 01:57:37;;;;;;;35.87;20.67;;;2.80;99.90;;;;;;5042059;28;20685;-68
2021/11/10 02:00:11;;;;;;;34.20;20.77;;;2.80;99.90;;;;;;5047607;28;20241;-68
2021/11/10 02:02:41;;;;;;;37.30;21.33;;;2.80;99.90;;;;;;5049062;28;20205;-69
2021/11/10 02:05:09;;;;;;;30.90;20.20;;;2.80;99.90;;;;;;5045427;28;20218;-70
2021/11/10 02:07:37;;;;;;;31.10;19.93;;;2.80;99.90;;;;;;5055642;28;20275;-69
2021/11/10 02:10:05;;;;;;;32.30;19.03;;;2.80;99.90;;;;;;5046676;28;20228;-68
2021/11/10 02:12:34;;;;;;;33.23;21.10;;;2.80;99.90;;;;;;5045242;28;20209;-68
2021/11/10 02:15:02;;;;;;;32.83;19.23;;;2.90;99.90;;;;;;5053114;28;20201;-69
2021/11/10 02:17:29;;;;;;;32.57;20.47;;;2.90;99.90;;;;;;5050600;28;20206;-68
2021/11/10 02:19:56;;;;;;;33.77;20.33;;;2.90;99.90;;;;;;5054147;28;20209;-68
2021/11/10 02:22:24;;;;;;;28.57;18.77;;;3.00;99.90;;;;;;5051516;28;20213;-68
2021/11/10 02:24:51;;;;;;;33.37;21.03;;;3.00;99.90;;;;;;5052537;28;20751;-69
2021/11/10 02:27:19;;;;;;;30.97;19.87;;;3.00;99.90;;;;;;5057296;28;20589;-68
2021/11/10 02:29:47;;;;;;;34.37;21.03;;;3.00;99.90;;;;;;5051047;28;20260;-68
2021/11/10 02:32:15;;;;;;;30.80;20.00;;;3.10;99.90;;;;;;5052986;28;20233;-69
2021/11/10 02:34:44;;;;;;;30.80;19.90;;;3.10;99.90;;;;;;5053016;28;20297;-68
2021/11/10 02:37:12;;;;;;;29.57;18.60;;;3.10;99.90;;;;;;5051140;28;20194;-68
2021/11/10 02:39:40;;;;;;;30.27;19.27;;;3.10;99.90;;;;;;5040936;28;20212;-68
2021/11/10 02:42:09;;;;;;;30.37;19.33;;;3.00;99.90;;;;;;5051533;28;20222;-68
2021/11/10 02:44:36;;;;;;;31.03;19.33;;;3.10;99.90;;;;;;5047833;28;20209;-68
2021/11/10 02:47:06;;;;;;;33.00;20.50;;;3.10;99.90;;;;;;5044354;28;20238;-68
2021/11/10 02:49:33;;;;;;;29.50;18.23;;;3.10;99.90;;;;;;5048420;28;20217;-68
2021/11/10 02:52:04;;;;;;;30.17;19.80;;;3.10;99.90;;;;;;5039732;28;20612;-69
2021/11/10 02:54:33;;;;;;;29.37;17.93;;;3.20;99.90;;;;;;5052217;28;20585;-68
2021/11/10 02:57:03;;;;;;;29.50;18.37;;;3.20;99.90;;;;;;5049460;28;20309;-68
2021/11/10 02:59:30;;;;;;;33.00;19.43;;;3.20;99.90;;;;;;5044119;28;20205;-68
2021/11/10 03:01:59;;;;;;;30.90;18.00;;;3.20;99.90;;;;;;5048262;28;20551;-68
2021/11/10 03:04:29;;;;;;;31.77;18.87;;;3.20;99.90;;;;;;5045852;28;20566;-68
2021/11/10 03:06:57;;;;;;;31.07;18.33;;;3.30;99.90;;;;;;5051679;28;20225;-68
2021/11/10 03:09:26;;;;;;;28.97;18.37;;;3.40;99.90;;;;;;5048320;28;20244;-69
2021/11/10 03:11:56;;;;;;;33.10;18.00;;;3.40;99.90;;;;;;5043473;28;20734;-69
2021/11/10 03:14:25;;;;;;;31.97;19.20;;;3.30;99.90;;;;;;5051433;28;20639;-69
2021/11/10 03:16:52;;;;;;;28.20;16.60;;;3.40;99.90;;;;;;5054716;28;20213;-68
2021/11/10 03:19:19;;;;;;;33.37;18.20;;;3.40;99.90;;;;;;5050669;28;20225;-67
2021/11/10 03:21:46;;;;;;;31.53;18.53;;;3.40;99.90;;;;;;5039254;28;20288;-68
2021/11/10 03:24:14;;;;;;;29.97;18.63;;;3.40;99.90;;;;;;5048330;28;20551;-68
2021/11/10 03:26:41;;;;;;;31.63;18.30;;;3.30;99.90;;;;;;5051260;28;20224;-68
2021/11/10 03:29:08;;;;;;;30.07;18.53;;;3.40;99.90;;;;;;5055619;28;20275;-69
2021/11/10 03:31:38;;;;;;;30.13;19.10;;;3.40;99.90;;;;;;5050485;28;20229;-68
2021/11/10 03:34:07;;;;;;;29.47;17.80;;;3.30;99.90;;;;;;5052522;28;20416;-69
2021/11/10 03:36:34;;;;;;;30.67;19.00;;;3.30;99.90;;;;;;5048806;28;20566;-69
2021/11/10 03:39:01;;;;;;;30.47;18.37;;;3.30;99.90;;;;;;5051368;28;20221;-68
2021/11/10 03:41:28;;;;;;;29.37;18.70;;;3.30;99.90;;;;;;5049889;28;20224;-67
2021/11/10 03:43:55;;;;;;;31.57;20.27;;;3.40;99.90;;;;;;5051453;28;20218;-68
2021/11/10 03:46:23;;;;;;;28.57;18.30;;;3.30;99.90;;;;;;5048501;28;20284;-68
2021/11/10 03:48:52;;;;;;;29.57;18.83;;;3.40;99.90;;;;;;5046259;28;20230;-68
2021/11/10 03:51:20;;;;;;;25.60;16.43;;;3.40;99.90;;;;;;5048332;28;20225;-68
2021/11/10 03:53:47;;;;;;;29.17;17.87;;;3.40;99.90;;;;;;5050707;28;20690;-68
2021/11/10 03:56:18;;;;;;;29.93;18.07;;;3.50;99.90;;;;;;5051739;28;20236;-69
2021/11/10 03:58:47;;;;;;;29.23;18.40;;;3.50;99.90;;;;;;5047066;28;20224;-69
2021/11/10 04:01:14;;;;;;;26.93;17.47;;;3.50;99.90;;;;;;5048076;28;20194;-69
2021/11/10 04:03:41;;;;;;;32.60;17.77;;;3.50;99.90;;;;;;5045291;28;20256;-68
2021/11/10 04:06:10;;;;;;;31.47;20.37;;;3.50;99.90;;;;;;5049682;28;20665;-68
2021/11/10 04:08:37;;;;;;;31.13;19.73;;;3.50;99.90;;;;;;5056484;28;20588;-67
2021/11/10 04:11:04;;;;;;;33.17;18.83;;;3.50;99.90;;;;;;5051138;28;20208;-68
2021/11/10 04:13:32;;;;;;;28.57;18.60;;;3.50;99.90;;;;;;5050068;28;20210;-68
2021/11/10 04:16:00;;;;;;;28.10;18.13;;;3.40;99.90;;;;;;5052953;28;20703;-68
2021/11/10 04:18:32;;;;;;;29.37;18.77;;;3.40;99.90;;;;;;5045312;28;20302;-69
2021/11/10 04:20:59;;;;;;;29.53;19.43;;;3.40;99.90;;;;;;5049495;28;20679;-68
2021/11/10 04:23:28;;;;;;;31.23;19.03;;;3.50;99.90;;;;;;5044252;28;20206;-68
2021/11/10 04:25:55;;;;;;;29.67;17.97;;;3.40;99.90;;;;;;5052117;28;20256;-68
2021/11/10 04:28:22;;;;;;;30.73;18.00;;;3.40;99.90;;;;;;5051843;28;20265;-69
2021/11/10 04:30:51;;;;;;;31.77;19.03;;;3.40;99.90;;;;;;5047125;28;20655;-68
2021/11/10 04:33:19;;;;;;;31.20;18.60;;;3.40;99.90;;;;;;5044186;28;20214;-68
2021/11/10 04:35:45;;;;;;;34.97;19.37;;;3.40;99.90;;;;;;5044651;28;21038;-69
2021/11/10 04:38:12;;;;;;;30.97;18.67;;;3.40;99.90;;;;;;5050256;28;20210;-69
2021/11/10 04:40:42;;;;;;;29.30;18.57;;;3.40;99.90;;;;;;5048743;28;20720;-67
2021/11/10 04:43:09;;;;;;;30.27;19.63;;;3.40;99.90;;;;;;5047414;28;20210;-69
2021/11/10 04:45:38;;;;;;;33.97;19.43;;;3.30;99.90;;;;;;5055956;28;20201;-69
2021/11/10 04:48:07;;;;;;;33.30;19.40;;;3.30;99.90;;;;;;5045061;28;20296;-69
2021/11/10 04:50:43;;;;;;;32.13;20.07;;;3.30;99.90;;;;;;5045914;28;20208;-69
2021/11/10 04:53:11;;;;;;;31.20;19.37;;;4.60;99.90;;;;;;5048743;28;20705;-68
2021/11/10 04:55:39;;;;;;;34.37;19.00;;;3.20;99.90;;;;;;5050146;28;20210;-68
2021/11/10 04:58:07;;;;;;;31.67;18.47;;;3.30;99.90;;;;;;5042232;28;20695;-67
2021/11/10 05:00:34;;;;;;;33.07;19.20;;;3.30;99.90;;;;;;5047057;28;20214;-68
2021/11/10 05:03:01;;;;;;;35.00;19.60;;;3.30;99.90;;;;;;5045532;28;20215;-68
2021/11/10 05:05:28;;;;;;;29.53;18.57;;;3.30;99.90;;;;;;5045651;28;20218;-67
2021/11/10 05:07:55;;;;;;;27.30;18.57;;;3.30;99.90;;;;;;5050296;28;20237;-69
2021/11/10 05:10:22;;;;;;;27.63;17.53;;;3.20;99.90;;;;;;5048658;28;20204;-69
2021/11/10 05:12:49;;;;;;;28.73;18.90;;;3.20;99.90;;;;;;5050188;28;20210;-67
2021/11/10 05:15:17;;;;;;;32.03;18.20;;;3.10;99.90;;;;;;5051652;28;20206;-68
2021/11/10 05:17:44;;;;;;;30.77;18.63;;;3.20;99.90;;;;;;5045463;28;20218;-68
2021/11/10 05:20:11;;;;;;;31.57;19.87;;;3.10;99.90;;;;;;5048690;28;20210;-68
2021/11/10 05:22:39;;;;;;;26.20;17.50;;;3.10;99.90;;;;;;5040891;28;20214;-68
2021/11/10 05:25:08;;;;;;;31.43;19.00;;;3.10;99.90;;;;;;5042658;28;20213;-68
2021/11/10 05:27:35;;;;;;;32.13;19.00;;;3.00;99.90;;;;;;5049879;28;20306;-68
2021/11/10 05:30:03;;;;;;;31.47;19.87;;;3.00;99.90;;;;;;5047969;28;20206;-68
2021/11/10 05:32:31;;;;;;;32.87;20.13;;;3.00;99.90;;;;;;5037762;28;20328;-68
2021/11/10 05:34:59;;;;;;;30.53;17.77;;;3.00;99.90;;;;;;5042247;28;20297;-68
2021/11/10 05:37:26;;;;;;;36.03;19.17;;;3.00;99.90;;;;;;5045407;28;20721;-69
2021/11/10 05:39:53;;;;;;;29.97;19.13;;;2.90;99.90;;;;;;5037000;28;20667;-69
2021/11/10 05:42:20;;;;;;;33.17;19.43;;;2.90;99.90;;;;;;5047431;28;20264;-68
2021/11/10 05:44:47;;;;;;;34.07;19.50;;;2.90;99.90;;;;;;5055472;28;20201;-69
2021/11/10 05:47:14;;;;;;;32.30;18.93;;;2.80;99.90;;;;;;5045781;28;20272;-68
2021/11/10 05:49:42;;;;;;;29.43;19.10;;;2.70;99.90;;;;;;5047211;28;20210;-69
2021/11/10 05:52:10;;;;;;;30.50;19.23;;;2.70;99.90;;;;;;5046077;28;20213;-68
2021/11/10 05:54:39;;;;;;;30.90;18.80;;;2.70;99.90;;;;;;5048945;28;20212;-69
2021/11/10 05:57:06;;;;;;;33.97;19.20;;;2.60;99.90;;;;;;5046935;28;20244;-68
2021/11/10 05:59:34;;;;;;;31.20;18.43;;;2.60;99.90;;;;;;5047861;28;20209;-69
2021/11/10 06:02:00;;;;;;;30.87;19.10;;;2.50;99.90;;;;;;5048496;28;20206;-68
2021/11/10 06:04:28;;;;;;;29.60;18.47;;;2.50;99.90;;;;;;5047958;28;20227;-69
2021/11/10 06:06:56;;;;;;;27.53;17.60;;;2.50;99.90;;;;;;5052513;28;20573;-70
2021/11/10 06:09:23;;;;;;;35.13;18.30;;;2.50;99.90;;;;;;5041270;28;20245;-68
2021/11/10 06:11:50;;;;;;;29.60;18.63;;;2.40;99.90;;;;;;5050120;28;20236;-69
2021/11/10 06:14:17;;;;;;;30.43;17.43;;;2.40;99.90;;;;;;5049780;28;20205;-69
2021/11/10 06:16:44;;;;;;;32.30;18.07;;;2.40;99.90;;;;;;5047552;28;20220;-69
2021/11/10 06:19:10;;;;;;;32.30;19.00;;;2.40;99.90;;;;;;5051874;28;20224;-69
2021/11/10 06:21:37;;;;;;;29.67;19.23;;;2.40;99.90;;;;;;5047525;28;20663;-68
2021/11/10 06:24:06;;;;;;;27.67;17.70;;;2.40;99.90;;;;;;5047157;28;20206;-68
2021/11/10 06:26:33;;;;;;;31.37;19.50;;;2.30;99.90;;;;;;5053919;28;20252;-69
2021/11/10 06:28:59;;;;;;;27.57;17.27;;;2.40;99.90;;;;;;5046143;28;20256;-69
2021/11/10 06:31:26;;;;;;;29.13;18.63;;;2.40;99.90;;;;;;5040673;28;20259;-69
2021/11/10 06:33:53;;;;;;;32.07;18.27;;;2.40;99.90;;;;;;5047046;28;20213;-68
2021/11/10 06:36:20;;;;;;;29.83;18.70;;;2.40;99.90;;;;;;5053313;28;20221;-68
2021/11/10 06:38:48;;;;;;;27.73;17.90;;;2.40;99.90;;;;;;5053188;28;20202;-69
2021/11/10 06:41:19;;;;;;;31.40;18.87;;;2.50;99.90;;;;;;5047305;28;20268;-68
2021/11/10 06:43:46;;;;;;;26.57;17.90;;;2.60;99.90;;;;;;5048808;28;20202;-68
2021/11/10 06:46:13;;;;;;;28.47;18.07;;;2.70;99.90;;;;;;5047528;28;20213;-68
2021/11/10 06:48:40;;;;;;;27.30;17.33;;;2.90;99.90;;;;;;5041135;28;20300;-70
2021/11/10 06:51:07;;;;;;;25.27;16.67;;;3.00;99.90;;;;;;5047552;28;20218;-69
2021/11/10 06:53:35;;;;;;;29.60;18.07;;;3.10;99.90;;;;;;5045736;28;20210;-68
2021/11/10 06:56:02;;;;;;;30.23;18.77;;;3.20;99.90;;;;;;5048063;28;20586;-69
2021/11/10 06:58:30;;;;;;;28.53;17.00;;;3.40;99.90;;;;;;5052127;28;20436;-67
2021/11/10 07:00:57;;;;;;;25.53;16.33;;;3.50;99.90;;;;;;5050833;28;20218;-71
2021/11/10 07:03:24;;;;;;;35.73;22.00;;;3.60;99.90;;;;;;5053493;28;20212;-70
2021/11/10 07:05:51;;;;;;;27.70;17.63;;;3.90;99.90;;;;;;5058279;28;20684;-71
2021/11/10 07:08:18;;;;;;;30.80;18.23;;;4.10;99.90;;;;;;5052433;28;20232;-71
2021/11/10 07:10:45;;;;;;;29.03;19.00;;;4.40;99.90;;;;;;5048169;28;20701;-70
2021/11/10 07:13:12;;;;;;;29.03;16.87;;;4.40;99.90;;;;;;5050483;28;20292;-69
2021/11/10 07:15:41;;;;;;;28.40;17.53;;;4.60;99.90;;;;;;5066024;28;20209;-70
2021/11/10 07:18:08;;;;;;;29.10;18.57;;;4.60;99.90;;;;;;5049567;28;20220;-70
2021/11/10 07:20:35;;;;;;;24.77;16.40;;;4.80;99.90;;;;;;5051372;28;20786;-70
2021/11/10 07:23:02;;;;;;;27.07;17.13;;;4.80;99.90;;;;;;5042496;28;20522;-71
2021/11/10 07:25:29;;;;;;;26.60;16.43;;;4.90;99.90;;;;;;5048110;28;20222;-73
2021/11/10 07:27:56;;;;;;;24.27;16.03;;;4.90;99.90;;;;;;5051235;28;20709;-73
2021/11/10 07:30:23;;;;;;;27.70;15.87;;;5.00;99.90;;;;;;5048348;28;20626;-71
2021/11/10 07:32:52;;;;;;;24.83;16.37;;;5.00;99.90;;;;;;5054248;28;20245;-72
2021/11/10 07:35:19;;;;;;;23.00;16.17;;;5.10;99.90;;;;;;5046267;28;20305;-70
2021/11/10 07:37:47;;;;;;;24.47;15.87;;;5.30;99.90;;;;;;5051608;28;20631;-70
2021/11/10 07:40:16;;;;;;;21.70;15.03;;;5.50;99.90;;;;;;5047385;28;20206;-71
2021/11/10 07:42:44;;;;;;;23.50;15.57;;;5.70;99.90;;;;;;5051168;28;20210;-71
2021/11/10 07:45:15;;;;;;;22.23;15.03;;;5.90;99.90;;;;;;5042440;28;20269;-70
2021/11/10 07:47:42;;;;;;;25.83;16.30;;;6.10;99.90;;;;;;5056892;28;20209;-70
2021/11/10 07:50:15;;;;;;;23.37;15.47;;;6.30;99.90;;;;;;5049671;28;20221;-70
2021/11/10 07:52:42;;;;;;;29.60;15.23;;;6.40;99.90;;;;;;5054528;28;20205;-72
2021/11/10 07:55:10;;;;;;;24.60;16.03;;;6.60;99.90;;;;;;5049021;28;20293;-70
2021/11/10 07:57:37;;;;;;;26.27;15.43;;;6.80;99.90;;;;;;5053469;28;20229;-72
2021/11/10 08:00:08;;;;;;;19.90;15.27;;;7.00;99.90;;;;;;5048656;28;20276;-73
2021/11/10 08:02:34;;;;;;;23.30;16.83;;;7.10;99.90;;;;;;5046741;28;20208;-72
2021/11/10 08:05:01;;;;;;;23.97;15.90;;;7.30;99.90;;;;;;5050296;28;20623;-71
2021/11/10 08:07:30;;;;;;;21.43;15.63;;;7.40;99.90;;;;;;5051668;28;20644;-72
2021/11/10 08:09:57;;;;;;;21.47;14.70;;;7.50;99.90;;;;;;5053952;28;20317;-72
2021/11/10 08:12:26;;;;;;;21.17;14.93;;;7.70;99.90;;;;;;5048109;28;20234;-73
2021/11/10 08:14:52;;;;;;;21.73;14.83;;;8.00;99.90;;;;;;5046209;28;20214;-70
2021/11/10 08:17:20;;;;;;;19.60;13.23;;;8.20;99.90;;;;;;5046492;28;20298;-71
2021/11/10 08:19:50;;;;;;;23.27;14.60;;;8.30;99.90;;;;;;5052613;28;20204;-72
2021/11/10 08:22:17;;;;;;;18.83;12.30;;;8.50;99.90;;;;;;5060237;28;20217;-70
2021/11/10 08:24:48;;;;;;;22.83;13.93;;;8.70;99.90;;;;;;5056741;28;20285;-69
2021/11/10 08:27:15;;;;;;;20.67;13.53;;;8.90;99.90;;;;;;5050353;28;20221;-70
2021/11/10 08:29:42;;;;;;;20.33;13.13;;;9.10;99.90;;;;;;5054226;28;20256;-71
2021/11/10 08:32:09;;;;;;;19.63;12.40;;;9.30;99.90;;;;;;5042860;28;20238;-69
2021/11/10 08:34:36;;;;;;;26.37;15.40;;;9.50;99.90;;;;;;5048229;28;20302;-69
2021/11/10 08:37:03;;;;;;;20.17;13.47;;;9.90;99.90;;;;;;5055528;28;20216;-70
2021/11/10 08:39:30;;;;;;;17.87;13.73;;;10.80;99.90;;;;;;5044251;28;20214;-69
2021/11/10 08:42:00;;;;;;;19.07;12.77;;;13.10;99.90;;;;;;5055397;28;20274;-70
2021/11/10 08:44:27;;;;;;;18.57;12.67;;;15.90;99.90;;;;;;5044986;28;20210;-71
2021/11/10 08:46:56;;;;;;;16.30;13.17;;;18.90;93.10;;;;;;5053518;28;20444;-69
2021/11/10 08:49:24;;;;;;;18.75;13.32;;;21.60;72.60;;;;;;5049169;28;20222;-69
2021/11/10 08:51:51;;;;;;;18.10;12.77;;;23.80;59.60;;;;;;5051018;28;20210;-69
2021/11/10 08:54:19;;;;;;;17.40;13.50;;;25.50;52.70;;;;;;5048009;28;20242;-70
2021/11/10 08:56:49;;;;;;;18.10;12.60;;;26.90;47.40;;;;;;5049817;28;20252;-69
2021/11/10 08:59:17;;;;;;;18.83;12.65;;;28.00;44.60;;;;;;5046915;28;20301;-70
2021/11/10 09:01:44;;;;;;;15.75;13.05;;;29.10;41.50;;;;;;5048943;28;20310;-71
2021/11/10 09:04:11;;;;;;;14.07;12.38;;;30.00;39.40;;;;;;5042038;28;20305;-70
2021/11/10 09:06:38;;;;;;;15.98;13.02;;;30.80;37.70;;;;;;5046993;28;20252;-70
2021/11/10 09:09:05;;;;;;;18.38;13.00;;;31.50;36.80;;;;;;5044339;28;20222;-70
2021/11/10 09:11:31;;;;;;;15.90;13.23;;;32.20;34.80;;;;;;5045856;28;20650;-68
2021/11/10 09:13:58;;;;;;;14.75;12.40;;;32.70;33.90;;;;;;5051461;28;20252;-69
2021/11/10 09:16:26;;;;;;;14.10;12.65;;;33.30;33.20;;;;;;5049659;28;20237;-70
2021/11/10 09:18:53;;;;;;;15.25;12.68;;;33.80;32.10;;;;;;5050352;28;20206;-68
2021/11/10 09:21:21;;;;;;;16.38;12.93;;;34.40;31.40;;;;;;5055408;28;20218;-68
2021/11/10 09:23:48;;;;;;;16.75;13.52;;;35.20;30.30;;;;;;5047975;28;20210;-70
2021/11/10 09:26:15;;;;;;;14.52;11.52;;;36.10;29.80;;;;;;5046331;28;20275;-69
2021/11/10 09:28:42;;;;;;;16.00;12.45;;;36.80;29.00;;;;;;5047297;28;20206;-71
2021/11/10 09:31:09;;;;;;;15.05;12.60;;;37.10;28.90;;;;;;5046771;28;20257;-71
2021/11/10 09:33:40;;;;;;;13.38;12.02;;;37.50;27.90;;;;;;5051645;28;20221;-71
2021/11/10 09:36:08;;;;;;;13.18;11.63;;;37.50;27.40;;;;;;5056384;28;20202;-71
2021/11/10 09:38:36;;;;;;;15.73;12.73;;;37.70;27.10;;;;;;5051296;28;20293;-69
2021/11/10 09:41:05;;;;;;;15.80;12.65;;;37.70;27.00;;;;;;5040474;28;20281;-70
2021/11/10 09:43:35;;;;;;;14.40;11.55;;;37.80;27.00;;;;;;5049136;28;20296;-69
2021/11/10 09:46:05;;;;;;;14.52;11.95;;;38.10;26.70;;;;;;5052884;28;20202;-70
2021/11/10 09:48:34;;;;;;;17.92;11.95;;;38.70;26.50;;;;;;5050633;28;20574;-71
2021/11/10 09:51:04;;;;;;;15.10;11.52;;;39.40;26.00;;;;;;5051058;28;20205;-70
2021/11/10 09:53:31;;;;;;;13.40;12.05;;;39.90;25.60;;;;;;5051942;28;20309;-70
2021/11/10 09:55:59;;;;;;;13.32;11.93;;;40.40;25.20;;;;;;5052162;28;20255;-72
2021/11/10 09:58:27;;;;;;;13.25;11.52;;;40.50;25.10;;;;;;5048956;28;20218;-71
2021/11/10 10:00:57;;;;;;;12.02;10.75;;;40.90;24.70;;;;;;5054862;28;20700;-72
2021/11/10 10:03:28;;;;;;;12.32;11.02;;;41.30;24.40;;;;;;5051485;28;20219;-73
2021/11/10 10:05:57;;;;;;;13.63;11.40;;;41.70;24.20;;;;;;5056318;28;20265;-74
2021/11/10 10:08:25;;;;;;;12.73;11.43;;;42.00;24.20;;;;;;5049333;28;20216;-71
2021/11/10 10:10:52;;;;;;;12.40;11.10;;;42.10;23.90;;;;;;5052606;28;20957;-72
2021/11/10 10:13:21;;;;;;;15.57;12.00;;;42.40;23.80;;;;;;5051520;28;20214;-73
2021/11/10 10:15:49;;;;;;;13.32;11.52;;;42.90;23.60;;;;;;5050903;28;20542;-72
2021/11/10 10:18:18;;;;;;;12.52;11.23;;;43.50;23.40;;;;;;5050456;28;20213;-72
2021/11/10 10:20:47;;;;;;;13.25;11.93;;;43.80;23.00;;;;;;5049691;28;20198;-73
2021/11/10 10:23:16;;;;;;;14.20;11.80;;;44.10;22.70;;;;;;5043893;28;20617;-71
2021/11/10 10:25:48;;;;;;;11.60;10.43;;;44.00;22.50;;;;;;5043143;28;20209;-71
2021/11/10 10:28:17;;;;;;;14.35;10.90;;;43.50;22.70;;;;;;5056782;28;20204;-72
2021/11/10 10:30:47;;;;;;;13.02;9.73;;;43.60;22.70;;;;;;5048803;28;20240;-73
2021/11/10 10:33:18;;;;;;;10.90;9.77;;;43.90;22.70;;;;;;5045912;28;20239;-71
2021/11/10 10:35:47;;;;;;;12.23;10.20;;;44.00;22.40;;;;;;5052493;28;20205;-73
2021/11/10 10:38:17;;;;;;;11.80;10.52;;;44.10;22.40;;;;;;5054749;28;20579;-73
2021/11/10 10:40:50;;;;;;;11.80;10.60;;;44.30;22.10;;;;;;5041473;28;20236;-70
2021/11/10 10:43:19;;;;;;;13.80;10.73;;;44.40;22.00;;;;;;5049223;28;20297;-70
2021/11/10 10:45:49;;;;;;;12.30;9.93;;;44.80;22.00;;;;;;5045969;28;20211;-72
2021/11/10 10:48:23;;;;;;;11.82;9.88;;;45.00;21.70;;;;;;5050841;28;20201;-71
2021/11/10 10:50:55;;;;;;;12.27;10.13;;;44.70;21.60;;;;;;5051624;28;20678;-74
2021/11/10 10:53:35;;;;;;;13.85;11.07;;;44.70;21.80;;;;;;5045712;28;20210;-71
2021/11/10 10:56:18;;;;;;;11.40;10.30;;;44.70;21.50;;;;;;5049113;28;20328;-71
2021/11/10 10:58:47;;;;;;;11.85;10.65;;;44.70;21.70;;;;;;5054241;28;20204;-71
2021/11/10 11:01:20;;;;;;;10.98;9.00;;;45.00;21.70;;;;;;5048034;28;20256;-72
2021/11/10 11:03:51;;;;;;;12.82;11.52;;;45.10;21.70;;;;;;5051613;28;20259;-72
2021/11/10 11:06:37;;;;;;;13.95;10.23;;;45.20;21.60;;;;;;5055474;28;20650;-70
2021/11/10 11:09:14;;;;;;;11.10;9.85;;;45.10;21.50;;;;;;5053074;28;20209;-70
2021/11/10 11:11:54;;;;;;;14.70;10.00;;;45.10;21.40;;;;;;5051381;28;20480;-70
2021/11/10 11:14:37;;;;;;;11.55;10.35;;;45.10;21.60;;;;;;5049086;28;20738;-71
2021/11/10 11:17:07;;;;;;;12.80;10.55;;;45.60;21.40;;;;;;5048764;28;20201;-71
2021/11/10 11:19:37;;;;;;;11.55;10.02;;;46.10;21.10;;;;;;5051562;28;20729;-71
2021/11/10 11:22:06;;;;;;;10.70;9.57;;;46.20;20.90;;;;;;5056645;28;20718;-72
2021/11/10 11:24:42;;;;;;;11.63;10.43;;;46.00;20.80;;;;;;5049304;28;20212;-70
2021/11/10 11:27:29;;;;;;;13.50;10.48;;;45.50;21.10;;;;;;5051427;28;20673;-70
2021/11/10 11:30:03;;;;;;;11.68;9.30;;;45.00;21.30;;;;;;5048199;28;20228;-69
2021/11/10 11:32:33;;;;;;;10.52;9.45;;;44.90;21.40;;;;;;5048556;28;20852;-70
2021/11/10 11:35:04;;;;;;;9.85;8.63;;;44.90;21.50;;;;;;5044070;28;20209;-71
2021/11/10 11:37:31;;;;;;;9.50;8.52;;;44.80;21.30;;;;;;5052409;28;20217;-71
2021/11/10 11:40:02;;;;;;;10.25;8.88;;;44.70;21.20;;;;;;5056904;28;20311;-71
2021/11/10 11:42:31;;;;;;;10.57;9.50;;;44.00;21.20;;;;;;5046141;28;20250;-70
2021/11/10 11:44:58;;;;;;;13.82;10.45;;;42.10;21.10;;;;;;5047000;28;20245;-69
2021/11/10 11:47:26;;;;;;;11.57;9.48;;;39.20;22.30;;;;;;5044787;28;20584;-71
2021/11/10 11:49:54;;;;;;;15.18;11.13;;;36.10;24.00;;;;;;5050931;28;20490;-69
2021/11/10 11:52:28;;;;;;;14.93;9.35;;;33.30;25.70;;;;;;5043507;28;20233;-70
2021/11/10 11:54:57;;;;;;;10.70;9.10;;;30.70;27.60;;;;;;5047949;28;20650;-70
2021/11/10 11:57:25;;;;;;;11.15;9.75;;;28.20;29.50;;;;;;5041116;28;20630;-72
2021/11/10 11:59:55;;;;;;;13.05;10.15;;;26.10;31.70;;;;;;5047063;28;20305;-69
2021/11/10 12:02:28;;;;;;;15.02;9.75;;;24.50;34.10;;;;;;5043814;28;20221;-70
2021/11/10 12:04:56;;;;;;;12.10;9.93;;;23.00;35.90;;;;;;5051274;28;20312;-71
2021/11/10 12:07:43;;;;;;;12.70;9.55;;;21.80;37.70;;;;;;5050832;28;20221;-71
2021/11/10 12:10:28;;;;;;;15.95;10.48;;;20.70;39.40;;;;;;5051573;28;20232;-71
2021/11/10 12:13:07;;;;;;;15.65;10.73;;;19.80;41.10;;;;;;5050825;28;20209;-70
2021/11/10 12:16:07;;;;;;;15.27;10.05;;;19.00;42.60;;;;;;5046072;28;20217;-71
2021/11/10 12:18:47;;;;;;;12.98;9.73;;;18.20;44.10;;;;;;5039578;28;20274;-70
2021/11/10 12:21:15;;;;;;;15.83;10.17;;;17.60;45.30;;;;;;5047881;28;20654;-70
2021/11/10 12:24:12;;;;;;;15.57;9.57;;;17.00;46.40;;;;;;5046002;28;20662;-69
2021/11/10 12:27:05;;;;;;;14.67;9.23;;;16.40;47.80;;;;;;5042624;28;20202;-69
2021/11/10 12:29:50;;;;;;;13.10;9.70;;;15.90;49.20;;;;;;5040194;28;20198;-71
2021/11/10 12:32:17;;;;;;;13.93;9.67;;;15.50;50.10;;;;;;5044272;28;20245;-71
2021/11/10 12:34:49;;;;;;;15.20;10.20;;;15.10;50.70;;;;;;5046889;28;20670;-70
2021/11/10 12:37:34;;;;;;;12.03;8.93;;;14.80;51.50;;;;;;5044285;28;20199;-69
2021/11/10 12:40:11;;;;;;;19.90;10.70;;;14.50;52.20;;;;;;5044161;28;20217;-69
2021/11/10 12:42:47;;;;;;;15.43;10.63;;;14.30;52.80;;;;;;5042476;28;20307;-70
2021/11/10 12:45:19;;;;;;;12.10;9.73;;;14.10;53.50;;;;;;5044503;28;20706;-69